sensor_id;sensor_type;location;lat;lon;timestamp;pressure;altitude;pressure_sealevel;temperature;humidity
61880;BME280;47817;52.798;27.544;2023-04-29T00:01:40;1025.8;;;6.1;52.6
61880;BME280;47817;52.798;27.544;2023-04-29T00:06:24;1025.8;;;6;52.3
61880;BME280;47817;52.798;27.544;2023-04-29T00:11:56;1025.7;;;5.9;52.2
61880;BME280;47817;52.798;27.544;2023-04-29T00:16:54;1025.8;;;5.9;52.4
61880;BME280;47817;52.798;27.544;2023-04-29T00:21:26;1025.8;;;5.9;52.6
61880;BME280;47817;52.798;27.544;2023-04-29T00:26:32;1025.8;;;5.8;53
61880;BME280;47817;52.798;27.544;2023-04-29T00:31:38;1025.8;;;5.7;52.9
61880;BME280;47817;52.798;27.544;2023-04-29T00:36:10;1025.8;;;5.5;52.9
61880;BME280;47817;52.798;27.544;2023-04-29T00:41:30;1025.8;;;5.4;53.4
61880;BME280;47817;52.798;27.544;2023-04-29T00:46:40;1025.8;;;5.4;53.9
61880;BME280;47817;52.798;27.544;2023-04-29T00:51:10;1025.8;;;5.3;54.3
61880;BME280;47817;52.798;27.544;2023-04-29T00:56:54;1025.8;;;5.3;54.9
61880;BME280;47817;52.798;27.544;2023-04-29T01:01:16;1025.9;;;5.4;54.8
61880;BME280;47817;52.798;27.544;2023-04-29T01:06:57;1025.9;;;5.4;54.7
61880;BME280;47817;52.798;27.544;2023-04-29T01:11:38;1025.9;;;5.4;55
61880;BME280;47817;52.798;27.544;2023-04-29T01:16:43;1025.9;;;5.5;54.7
61880;BME280;47817;52.798;27.544;2023-04-29T01:21:30;1026;;;5.6;54.3
61880;BME280;47817;52.798;27.544;2023-04-29T01:26:48;1026;;;5.6;54
61880;BME280;47817;52.798;27.544;2023-04-29T01:31:13;1026;;;5.6;54.4
61880;BME280;47817;52.798;27.544;2023-04-29T01:36:42;1026;;;5.6;54.2
61880;BME280;47817;52.798;27.544;2023-04-29T01:41:32;1026;;;5.7;54.3
61880;BME280;47817;52.798;27.544;2023-04-29T01:46:30;1026.1;;;5.7;54.6
61880;BME280;47817;52.798;27.544;2023-04-29T01:51:54;1026.1;;;5.6;54.6
61880;BME280;47817;52.798;27.544;2023-04-29T01:56:22;1026.2;;;5.5;54.5
61880;BME280;47817;52.798;27.544;2023-04-29T02:01:10;1026.2;;;5.4;54.8
61880;BME280;47817;52.798;27.544;2023-04-29T02:06:54;1026.2;;;5.2;55.4
61880;BME280;47817;52.798;27.544;2023-04-29T02:11:18;1026.2;;;5.1;55.7
61880;BME280;47817;52.798;27.544;2023-04-29T02:16:18;1026.2;;;5;55.9
61880;BME280;47817;52.798;27.544;2023-04-29T02:21:46;1026.2;;;4.9;56.8
61880;BME280;47817;52.798;27.544;2023-04-29T02:26:42;1026.3;;;4.8;57.1
61880;BME280;47817;52.798;27.544;2023-04-29T02:31:16;1026.3;;;4.7;57.1
61880;BME280;47817;52.798;27.544;2023-04-29T02:36:10;1026.3;;;4.6;56.6
61880;BME280;47817;52.798;27.544;2023-04-29T02:41:56;1026.3;;;4.5;57.2
61880;BME280;47817;52.798;27.544;2023-04-29T02:46:56;1026.3;;;4.5;57.2
61880;BME280;47817;52.798;27.544;2023-04-29T02:51:30;1026.3;;;4.6;57
61880;BME280;47817;52.798;27.544;2023-04-29T02:56:18;1026.3;;;4.6;56.8
61880;BME280;47817;52.798;27.544;2023-04-29T03:01:56;1026.4;;;4.7;56.4
61880;BME280;47817;52.798;27.544;2023-04-29T03:06:40;1026.4;;;4.7;57
61880;BME280;47817;52.798;27.544;2023-04-29T03:11:32;1026.4;;;4.7;56.7
61880;BME280;47817;52.798;27.544;2023-04-29T03:16:32;1026.5;;;4.7;57
61880;BME280;47817;52.798;27.544;2023-04-29T03:21:46;1026.5;;;4.8;56.9
61880;BME280;47817;52.798;27.544;2023-04-29T03:26:10;1026.6;;;5;57.1
61880;BME280;47817;52.798;27.544;2023-04-29T03:31:24;1026.6;;;5.1;57.1
61880;BME280;47817;52.798;27.544;2023-04-29T03:36:24;1026.7;;;5.3;56.9
61880;BME280;47817;52.798;27.544;2023-04-29T03:41:22;1026.7;;;5.5;56.3
61880;BME280;47817;52.798;27.544;2023-04-29T03:46:50;1026.7;;;5.7;56.4
61880;BME280;47817;52.798;27.544;2023-04-29T03:51:40;1026.7;;;5.9;56.3
61880;BME280;47817;52.798;27.544;2023-04-29T03:56:32;1026.7;;;6.2;56.3
61880;BME280;47817;52.798;27.544;2023-04-29T04:01:38;1026.7;;;6.4;56.2
61880;BME280;47817;52.798;27.544;2023-04-29T04:06:16;1026.7;;;6.6;55.7
61880;BME280;47817;52.798;27.544;2023-04-29T04:11:40;1026.7;;;6.9;54.8
61880;BME280;47817;52.798;27.544;2023-04-29T04:16:46;1026.7;;;7.1;54.5
61880;BME280;47817;52.798;27.544;2023-04-29T04:21:56;1026.7;;;7.4;53.8
61880;BME280;47817;52.798;27.544;2023-04-29T04:26:10;1026.7;;;7.7;53
61880;BME280;47817;52.798;27.544;2023-04-29T04:31:56;1026.8;;;7.9;52.5
61880;BME280;47817;52.798;27.544;2023-04-29T04:36:54;1026.8;;;8.1;51.8
61880;BME280;47817;52.798;27.544;2023-04-29T04:41:38;1026.9;;;8.4;51.5
61880;BME280;47817;52.798;27.544;2023-04-29T04:46:34;1026.9;;;8.6;50.9
61880;BME280;47817;52.798;27.544;2023-04-29T04:51:32;1026.9;;;8.9;50.5
61880;BME280;47817;52.798;27.544;2023-04-29T04:56:46;1026.9;;;9.2;49.8
61880;BME280;47817;52.798;27.544;2023-04-29T05:01:42;1026.9;;;9.5;48.9
61880;BME280;47817;52.798;27.544;2023-04-29T05:06:20;1026.8;;;9.7;48.5
61880;BME280;47817;52.798;27.544;2023-04-29T05:11:58;1026.9;;;9.9;47.6
61880;BME280;47817;52.798;27.544;2023-04-29T05:16:58;1026.9;;;10.2;46.5
61880;BME280;47817;52.798;27.544;2023-04-29T05:21:10;1026.9;;;10.5;45.5
61880;BME280;47817;52.798;27.544;2023-04-29T05:26:58;1026.9;;;10.8;45.2
61880;BME280;47817;52.798;27.544;2023-04-29T05:31:42;1026.9;;;11;45
61880;BME280;47817;52.798;27.544;2023-04-29T05:36:34;1026.9;;;11.2;45.3
61880;BME280;47817;52.798;27.544;2023-04-29T05:41:10;1026.9;;;11.4;45.3
61880;BME280;47817;52.798;27.544;2023-04-29T05:46:42;1026.9;;;11.6;45.5
61880;BME280;47817;52.798;27.544;2023-04-29T05:51:11;1026.9;;;11.7;45.5
61880;BME280;47817;52.798;27.544;2023-04-29T05:56:54;1026.9;;;11.9;44.7
61880;BME280;47817;52.798;27.544;2023-04-29T06:01:16;1026.9;;;12;43.6
61880;BME280;47817;52.798;27.544;2023-04-29T06:06:56;1026.9;;;12.1;43.6
61880;BME280;47817;52.798;27.544;2023-04-29T06:11:40;1026.9;;;12.2;41.7
61880;BME280;47817;52.798;27.544;2023-04-29T06:16:32;1026.9;;;12.4;40.3
61880;BME280;47817;52.798;27.544;2023-04-29T06:21:34;1026.9;;;12.6;39.8
61880;BME280;47817;52.798;27.544;2023-04-29T06:26:48;1026.9;;;12.7;39.4
61880;BME280;47817;52.798;27.544;2023-04-29T06:31:16;1026.9;;;12.7;38.8
61880;BME280;47817;52.798;27.544;2023-04-29T06:36:34;1026.9;;;12.8;38.1
61880;BME280;47817;52.798;27.544;2023-04-29T06:41:56;1026.9;;;12.9;37.2
61880;BME280;47817;52.798;27.544;2023-04-29T06:46:10;1026.9;;;13.1;36.5
61880;BME280;47817;52.798;27.544;2023-04-29T06:51:56;1026.9;;;13.3;35.5
61880;BME280;47817;52.798;27.544;2023-04-29T06:56:12;1026.9;;;13.3;35
61880;BME280;47817;52.798;27.544;2023-04-29T07:01:24;1026.9;;;13.5;34.9
61880;BME280;47817;52.798;27.544;2023-04-29T07:06:40;1026.9;;;13.5;33.8
61880;BME280;47817;52.798;27.544;2023-04-29T07:11:10;1026.9;;;13.6;33.4
61880;BME280;47817;52.798;27.544;2023-04-29T07:16:24;1026.9;;;13.7;33
61880;BME280;47817;52.798;27.544;2023-04-29T07:21:36;1026.9;;;14;32.8
61880;BME280;47817;52.798;27.544;2023-04-29T07:26:56;1026.8;;;14.2;32.4
61880;BME280;47817;52.798;27.544;2023-04-29T07:31:34;1026.7;;;14.4;32.8
61880;BME280;47817;52.798;27.544;2023-04-29T07:36:54;1026.7;;;14.6;32.8
61880;BME280;47817;52.798;27.544;2023-04-29T07:41:42;1026.7;;;14.8;32.7
61880;BME280;47817;52.798;27.544;2023-04-29T07:46:32;1026.7;;;15;32.5
61880;BME280;47817;52.798;27.544;2023-04-29T07:51:32;1026.7;;;15;31.5
61880;BME280;47817;52.798;27.544;2023-04-29T07:56:10;1026.7;;;15;30.4
61880;BME280;47817;52.798;27.544;2023-04-29T08:01:12;1026.6;;;15;29.6
61880;BME280;47817;52.798;27.544;2023-04-29T08:06:38;1026.6;;;15.3;28.9
61880;BME280;47817;52.798;27.544;2023-04-29T08:11:14;1026.5;;;15.7;28.8
61880;BME280;47817;52.798;27.544;2023-04-29T08:16:46;1026.5;;;15.8;29.3
61880;BME280;47817;52.798;27.544;2023-04-29T08:21:56;1026.5;;;15.8;29.2
61880;BME280;47817;52.798;27.544;2023-04-29T08:26:10;1026.5;;;15.9;29.5
61880;BME280;47817;52.798;27.544;2023-04-29T08:31:34;1026.5;;;15.7;28.2
61880;BME280;47817;52.798;27.544;2023-04-29T08:36:42;1026.5;;;15.3;27.5
61880;BME280;47817;52.798;27.544;2023-04-29T08:41:10;1026.5;;;15.2;28.7
61880;BME280;47817;52.798;27.544;2023-04-29T08:46:32;1026.5;;;15.4;28.3
61880;BME280;47817;52.798;27.544;2023-04-29T08:51:46;1026.5;;;15.8;28.8
61880;BME280;47817;52.798;27.544;2023-04-29T08:56:20;1026.5;;;16.1;28.7
61880;BME280;47817;52.798;27.544;2023-04-29T09:01:56;1026.4;;;16.3;28.7
61880;BME280;47817;52.798;27.544;2023-04-29T09:06:42;1026.4;;;16.5;28.3
61880;BME280;47817;52.798;27.544;2023-04-29T09:11:48;1026.4;;;16.7;28.3
61880;BME280;47817;52.798;27.544;2023-04-29T09:16:18;1026.4;;;16.9;28.2
61880;BME280;47817;52.798;27.544;2023-04-29T09:21:58;1026.3;;;17.2;28.3
61880;BME280;47817;52.798;27.544;2023-04-29T09:26:10;1026.3;;;17.3;28.1
61880;BME280;47817;52.798;27.544;2023-04-29T09:31:50;1026.3;;;17.4;27.4
61880;BME280;47817;52.798;27.544;2023-04-29T09:36:10;1026.2;;;17.4;27.3
61880;BME280;47817;52.798;27.544;2023-04-29T09:41:56;1026.1;;;17.6;27.3
61880;BME280;47817;52.798;27.544;2023-04-29T09:46:32;1026.1;;;17.7;27.2
61880;BME280;47817;52.798;27.544;2023-04-29T09:51:10;1026.1;;;17.6;27.1
61880;BME280;47817;52.798;27.544;2023-04-29T09:56:59;1026.1;;;17.7;27.5
61880;BME280;47817;52.798;27.544;2023-04-29T10:01:10;1026;;;17.9;27
61880;BME280;47817;52.798;27.544;2023-04-29T10:06:24;1026;;;18.1;27
61880;BME280;47817;52.798;27.544;2023-04-29T10:11:58;1025.9;;;18.3;27.2
61880;BME280;47817;52.798;27.544;2023-04-29T10:16:43;1025.8;;;18.4;27.2
61880;BME280;47817;52.798;27.544;2023-04-29T10:21:34;1025.8;;;18.4;26.8
61880;BME280;47817;52.798;27.544;2023-04-29T10:26:49;1025.7;;;18.2;26.9
61880;BME280;47817;52.798;27.544;2023-04-29T10:31:52;1025.8;;;18.1;26.8
61880;BME280;47817;52.798;27.544;2023-04-29T10:36:10;1025.7;;;18.3;26.6
61880;BME280;47817;52.798;27.544;2023-04-29T10:41:50;1025.7;;;18.7;26.5
61880;BME280;47817;52.798;27.544;2023-04-29T10:47:30;1025.7;;;18.8;26.2
61880;BME280;47817;52.798;27.544;2023-04-29T10:51:38;1025.6;;;19;26.4
61880;BME280;47817;52.798;27.544;2023-04-29T10:56:38;1025.6;;;19.2;26.2
61880;BME280;47817;52.798;27.544;2023-04-29T11:01:11;1025.6;;;19.2;26.5
61880;BME280;47817;52.798;27.544;2023-04-29T11:06:50;1025.6;;;19.5;26.1
61880;BME280;47817;52.798;27.544;2023-04-29T11:11:42;1025.5;;;19.6;25.8
61880;BME280;47817;52.798;27.544;2023-04-29T11:16:10;1025.5;;;19.9;25.8
61880;BME280;47817;52.798;27.544;2023-04-29T11:22:23;1025.5;;;19.9;25.9
61880;BME280;47817;52.798;27.544;2023-04-29T11:26:58;1025.4;;;20.1;25.8
61880;BME280;47817;52.798;27.544;2023-04-29T11:31:42;1025.4;;;20.1;25.6
61880;BME280;47817;52.798;27.544;2023-04-29T11:36:10;1025.3;;;20.3;25.3
61880;BME280;47817;52.798;27.544;2023-04-29T11:41:40;1025.3;;;20.3;25.2
61880;BME280;47817;52.798;27.544;2023-04-29T11:46:10;1025.3;;;20.5;24.9
61880;BME280;47817;52.798;27.544;2023-04-29T11:51:32;1025.2;;;20.4;24.7
61880;BME280;47817;52.798;27.544;2023-04-29T11:56:42;1025.2;;;20.4;24.6
61880;BME280;47817;52.798;27.544;2023-04-29T12:01:10;1025.2;;;20.5;24.7
61880;BME280;47817;52.798;27.544;2023-04-29T12:06:56;1025.1;;;20.8;24.4
61880;BME280;47817;52.798;27.544;2023-04-29T12:11:26;1025.1;;;20.8;24.3
61880;BME280;47817;52.798;27.544;2023-04-29T12:16:58;1025.1;;;20.9;24.3
61880;BME280;47817;52.798;27.544;2023-04-29T12:21:49;1025;;;21.1;24.2
61880;BME280;47817;52.798;27.544;2023-04-29T12:26:59;1025;;;21.2;23.8
61880;BME280;47817;52.798;27.544;2023-04-29T12:31:10;1025;;;21.3;23.8
61880;BME280;47817;52.798;27.544;2023-04-29T12:36:48;1024.9;;;21.4;23.9
61880;BME280;47817;52.798;27.544;2023-04-29T12:41:10;1025;;;21.6;23.8
61880;BME280;47817;52.798;27.544;2023-04-29T12:46:42;1024.9;;;21.9;23.6
61880;BME280;47817;52.798;27.544;2023-04-29T12:51:11;1024.8;;;22;23.5
61880;BME280;47817;52.798;27.544;2023-04-29T12:56:18;1024.8;;;22.9;22
61880;BME280;47817;52.798;27.544;2023-04-29T13:01:56;1024.7;;;24.8;21
61880;BME280;47817;52.798;27.544;2023-04-29T13:06:20;1024.5;;;26.2;20
61880;BME280;47817;52.798;27.544;2023-04-29T13:11:34;1024.4;;;27.8;19.2
61880;BME280;47817;52.798;27.544;2023-04-29T13:16:56;1024.3;;;30;18.4
61880;BME280;47817;52.798;27.544;2023-04-29T13:21:20;1024.2;;;31.5;17.7
61880;BME280;47817;52.798;27.544;2023-04-29T13:26:24;1024.2;;;32.4;17
61880;BME280;47817;52.798;27.544;2023-04-29T13:31:48;1024.2;;;33.2;15.9
61880;BME280;47817;52.798;27.544;2023-04-29T13:36:56;1024.1;;;34.5;14.7
61880;BME280;47817;52.798;27.544;2023-04-29T13:41:10;1024.1;;;34.8;14.5
61880;BME280;47817;52.798;27.544;2023-04-29T13:46:10;1024.1;;;35.2;14.3
61880;BME280;47817;52.798;27.544;2023-04-29T13:51:56;1024;;;35.5;13.7
61880;BME280;47817;52.798;27.544;2023-04-29T13:56:56;1024;;;36.1;13.6
61880;BME280;47817;52.798;27.544;2023-04-29T14:01:22;1023.9;;;37;13.2
61880;BME280;47817;52.798;27.544;2023-04-29T14:06:26;1023.9;;;37.7;12.9
61880;BME280;47817;52.798;27.544;2023-04-29T14:11:56;1023.8;;;38.2;11.9
61880;BME280;47817;52.798;27.544;2023-04-29T14:16:40;1023.8;;;39.1;11.4
61880;BME280;47817;52.798;27.544;2023-04-29T14:21:10;1023.7;;;39.3;11.1
61880;BME280;47817;52.798;27.544;2023-04-29T14:26:34;1023.7;;;39.6;10.9
61880;BME280;47817;52.798;27.544;2023-04-29T14:31:46;1023.6;;;39.8;10.3
61880;BME280;47817;52.798;27.544;2023-04-29T14:36:26;1023.5;;;40.1;10.4
61880;BME280;47817;52.798;27.544;2023-04-29T14:41:34;1023.5;;;40;10.4
61880;BME280;47817;52.798;27.544;2023-04-29T14:46:12;1023.5;;;39.4;10.5
61880;BME280;47817;52.798;27.544;2023-04-29T14:51:10;1023.5;;;37.8;10.7
61880;BME280;47817;52.798;27.544;2023-04-29T14:56:26;1023.5;;;36.6;11.1
61880;BME280;47817;52.798;27.544;2023-04-29T15:01:26;1023.5;;;35.7;11.3
61880;BME280;47817;52.798;27.544;2023-04-29T15:06:10;1023.5;;;34.8;11.5
61880;BME280;47817;52.798;27.544;2023-04-29T15:11:56;1023.4;;;34.3;11.9
61880;BME280;47817;52.798;27.544;2023-04-29T15:16:26;1023.4;;;33.6;12.1
61880;BME280;47817;52.798;27.544;2023-04-29T15:21:56;1023.4;;;33.2;12.2
61880;BME280;47817;52.798;27.544;2023-04-29T15:26:22;1023.4;;;32.7;12.6
61880;BME280;47817;52.798;27.544;2023-04-29T15:31:56;1023.4;;;33;12.4
61880;BME280;47817;52.798;27.544;2023-04-29T15:36:26;1023.3;;;34;12
61880;BME280;47817;52.798;27.544;2023-04-29T15:41:48;1023.3;;;34;11.8
61880;BME280;47817;52.798;27.544;2023-04-29T15:46:10;1023.2;;;33.7;12.1
61880;BME280;47817;52.798;27.544;2023-04-29T15:51:26;1023.2;;;33.7;12.2
61880;BME280;47817;52.798;27.544;2023-04-29T15:56:32;1023.2;;;34.2;12
61880;BME280;47817;52.798;27.544;2023-04-29T16:01:32;1023.2;;;34.6;11.8
61880;BME280;47817;52.798;27.544;2023-04-29T16:06:58;1023.2;;;35.1;11.6
61880;BME280;47817;52.798;27.544;2023-04-29T16:11:28;1023.2;;;35.8;11
61880;BME280;47817;52.798;27.544;2023-04-29T16:16:34;1023.2;;;36;10.8
61880;BME280;47817;52.798;27.544;2023-04-29T16:21:48;1023.2;;;36;10.8
61880;BME280;47817;52.798;27.544;2023-04-29T16:26:28;1023.2;;;35.7;10.9
61880;BME280;47817;52.798;27.544;2023-04-29T16:31:10;1023.2;;;35;11.4
61880;BME280;47817;52.798;27.544;2023-04-29T16:36:38;1023.2;;;34.7;11.5
61880;BME280;47817;52.798;27.544;2023-04-29T16:41:56;1023.3;;;33.8;11.9
61880;BME280;47817;52.798;27.544;2023-04-29T16:46:10;1023.3;;;32.7;12.4
61880;BME280;47817;52.798;27.544;2023-04-29T16:51:32;1023.3;;;30.8;13.2
61880;BME280;47817;52.798;27.544;2023-04-29T16:56:56;1023.4;;;28.1;14.4
61880;BME280;47817;52.798;27.544;2023-04-29T17:01:56;1023.5;;;26.2;15.4
61880;BME280;47817;52.798;27.544;2023-04-29T17:06:32;1023.5;;;25.1;16.3
61880;BME280;47817;52.798;27.544;2023-04-29T17:11:10;1023.5;;;25.8;16
61880;BME280;47817;52.798;27.544;2023-04-29T17:16:56;1023.5;;;25.8;16.1
61880;BME280;47817;52.798;27.544;2023-04-29T17:21:40;1023.6;;;24;17.2
61880;BME280;47817;52.798;27.544;2023-04-29T17:26:20;1023.6;;;22;18.6
61880;BME280;47817;52.798;27.544;2023-04-29T17:31:34;1023.7;;;20.5;20.3
61880;BME280;47817;52.798;27.544;2023-04-29T17:36:48;1023.8;;;19.2;21.8
61880;BME280;47817;52.798;27.544;2023-04-29T17:41:10;1023.8;;;18.3;23.4
61880;BME280;47817;52.798;27.544;2023-04-29T17:46:24;1023.9;;;17.5;25.3
61880;BME280;47817;52.798;27.544;2023-04-29T17:51:58;1023.9;;;16.8;26.7
61880;BME280;47817;52.798;27.544;2023-04-29T17:56:20;1024;;;16.4;27.2
61880;BME280;47817;52.798;27.544;2023-04-29T18:01:58;1024;;;16;27.4
61880;BME280;47817;52.798;27.544;2023-04-29T18:06:24;1024.1;;;15.7;27.8
61880;BME280;47817;52.798;27.544;2023-04-29T18:11:18;1024.1;;;15.4;28.2
61880;BME280;47817;52.798;27.544;2023-04-29T18:16:12;1024.2;;;15.2;29.1
61880;BME280;47817;52.798;27.544;2023-04-29T18:21:44;1024.2;;;14.9;30.1
61880;BME280;47817;52.798;27.544;2023-04-29T18:26:10;1024.2;;;14.7;31.2
61880;BME280;47817;52.798;27.544;2023-04-29T18:31:38;1024.2;;;14.5;32.1
61880;BME280;47817;52.798;27.544;2023-04-29T18:37:00;1024.2;;;14.4;32.5
61880;BME280;47817;52.798;27.544;2023-04-29T18:41:44;1024.3;;;14.2;32.3
61880;BME280;47817;52.798;27.544;2023-04-29T18:46:52;1024.3;;;14.1;32.6
61880;BME280;47817;52.798;27.544;2023-04-29T18:51:10;1024.3;;;14;33
61880;BME280;47817;52.798;27.544;2023-04-29T18:56:45;1024.3;;;13.9;33.5
61880;BME280;47817;52.798;27.544;2023-04-29T19:01:34;1024.3;;;13.8;33.9
61880;BME280;47817;52.798;27.544;2023-04-29T19:06:10;1024.3;;;13.8;34.2
61880;BME280;47817;52.798;27.544;2023-04-29T19:12:01;1024.3;;;13.7;35.2
61880;BME280;47817;52.798;27.544;2023-04-29T19:16:22;1024.3;;;13.6;35.3
61880;BME280;47817;52.798;27.544;2023-04-29T19:21:36;1024.3;;;13.5;35.6
61880;BME280;47817;52.798;27.544;2023-04-29T19:27:00;1024.3;;;13.4;36.4
61880;BME280;47817;52.798;27.544;2023-04-29T19:31:28;1024.2;;;13.4;37.1
61880;BME280;47817;52.798;27.544;2023-04-29T19:36:10;1024.2;;;13.3;37.8
61880;BME280;47817;52.798;27.544;2023-04-29T19:41:50;1024.2;;;13.2;38.2
61880;BME280;47817;52.798;27.544;2023-04-29T19:47:00;1024.2;;;13.1;38.3
61880;BME280;47817;52.798;27.544;2023-04-29T19:51:16;1024.2;;;13;38
61880;BME280;47817;52.798;27.544;2023-04-29T19:56:34;1024.2;;;13;37.3
61880;BME280;47817;52.798;27.544;2023-04-29T20:01:58;1024.2;;;12.9;37
61880;BME280;47817;52.798;27.544;2023-04-29T20:07:00;1024.2;;;12.9;37.1
61880;BME280;47817;52.798;27.544;2023-04-29T20:11:36;1024.2;;;12.9;37
61880;BME280;47817;52.798;27.544;2023-04-29T20:16:16;1024.1;;;12.9;36.9
61880;BME280;47817;52.798;27.544;2023-04-29T20:22:00;1024.2;;;12.7;37.7
61880;BME280;47817;52.798;27.544;2023-04-29T20:26:44;1024.2;;;12.6;38
61880;BME280;47817;52.798;27.544;2023-04-29T20:31:20;1024.1;;;12.5;38
61880;BME280;47817;52.798;27.544;2023-04-29T20:36:34;1024.1;;;12.4;37.8
61880;BME280;47817;52.798;27.544;2023-04-29T20:41:48;1024.1;;;12.3;37.3
61880;BME280;47817;52.798;27.544;2023-04-29T20:46:20;1024;;;12.2;37.6
61880;BME280;47817;52.798;27.544;2023-04-29T20:51:34;1024;;;12.1;37.9
61880;BME280;47817;52.798;27.544;2023-04-29T20:56:58;1024;;;12;37.9
61880;BME280;47817;52.798;27.544;2023-04-29T21:01:34;1024;;;11.9;38
61880;BME280;47817;52.798;27.544;2023-04-29T21:07:00;1024;;;11.9;37.9
61880;BME280;47817;52.798;27.544;2023-04-29T21:11:42;1024;;;11.8;38.1
61880;BME280;47817;52.798;27.544;2023-04-29T21:16:22;1023.9;;;11.6;38.7
61880;BME280;47817;52.798;27.544;2023-04-29T21:21:44;1023.8;;;11.5;38.8
61880;BME280;47817;52.798;27.544;2023-04-29T21:26:16;1023.8;;;11.4;39.1
61880;BME280;47817;52.798;27.544;2023-04-29T21:31:56;1023.8;;;11.3;39.3
61880;BME280;47817;52.798;27.544;2023-04-29T21:36:50;1023.8;;;11.2;39.5
61880;BME280;47817;52.798;27.544;2023-04-29T21:41:58;1023.8;;;11.2;39.5
61880;BME280;47817;52.798;27.544;2023-04-29T21:46:34;1023.8;;;11.2;39.6
61880;BME280;47817;52.798;27.544;2023-04-29T21:51:56;1023.8;;;11.1;40.1
61880;BME280;47817;52.798;27.544;2023-04-29T21:56:58;1023.8;;;11;40.5
61880;BME280;47817;52.798;27.544;2023-04-29T22:01:42;1023.7;;;10.9;41.1
61880;BME280;47817;52.798;27.544;2023-04-29T22:06:34;1023.7;;;10.8;41.3
61880;BME280;47817;52.798;27.544;2023-04-29T22:11:34;1023.7;;;10.8;41.7
61880;BME280;47817;52.798;27.544;2023-04-29T22:16:50;1023.7;;;10.7;41.6
61880;BME280;47817;52.798;27.544;2023-04-29T22:21:42;1023.7;;;10.7;41.7
61880;BME280;47817;52.798;27.544;2023-04-29T22:26:58;1023.6;;;10.6;42.1
61880;BME280;47817;52.798;27.544;2023-04-29T22:31:56;1023.6;;;10.5;42.1
61880;BME280;47817;52.798;27.544;2023-04-29T22:36:56;1023.5;;;10.5;42.2
61880;BME280;47817;52.798;27.544;2023-04-29T22:41:44;1023.5;;;10.5;42.3
61880;BME280;47817;52.798;27.544;2023-04-29T22:46:34;1023.5;;;10.4;42.4
61880;BME280;47817;52.798;27.544;2023-04-29T22:51:44;1023.5;;;10.4;42.3
61880;BME280;47817;52.798;27.544;2023-04-29T22:56:10;1023.5;;;10.3;42.3
61880;BME280;47817;52.798;27.544;2023-04-29T23:01:10;1023.5;;;10.2;42.5
61880;BME280;47817;52.798;27.544;2023-04-29T23:07:00;1023.5;;;10.1;42.6
61880;BME280;47817;52.798;27.544;2023-04-29T23:12:00;1023.5;;;10;42.9
61880;BME280;47817;52.798;27.544;2023-04-29T23:16:10;1023.5;;;9.9;43.2
61880;BME280;47817;52.798;27.544;2023-04-29T23:21:18;1023.5;;;9.8;43.5
61880;BME280;47817;52.798;27.544;2023-04-29T23:26:58;1023.5;;;9.8;43
61880;BME280;47817;52.798;27.544;2023-04-29T23:31:42;1023.5;;;9.8;43
61880;BME280;47817;52.798;27.544;2023-04-29T23:36:20;1023.4;;;9.8;43.1
61880;BME280;47817;52.798;27.544;2023-04-29T23:41:22;1023.4;;;9.7;43.3
61880;BME280;47817;52.798;27.544;2023-04-29T23:46:48;1023.5;;;9.7;43.5
61880;BME280;47817;52.798;27.544;2023-04-29T23:51:22;1023.5;;;9.6;43.8
61880;BME280;47817;52.798;27.544;2023-04-29T23:56:34;1023.4;;;9.5;44
